[x] [x]
.:Aeroklub Partizánske:. |  .:Fotogaléria:. |  .:Videogaléria:. |  .:Foto týždňa:. |  .:Kniha návštev:. |  .:Linky:. |  .:Moje konto:.
 MENU [x]

 METEO [x]

 FotoGaléria [x]

 Slnko [x]
LZPT Partizánske
48°37'N 18°20'E
Východ: 6:31 AM
Západ: 4:29 PM
LZIB Bratislava
48°10'N 17°12'E
Východ: 6:34 AM
Západ: 4:35 PM
LZKZ Košice
48°39'N 21°14'E
Východ: 6:19 AM
Západ: 4:17 PM

 Jazyky [x]
Vyberte jazyk rozhrania:

Slovak English German Polish


  SPRÁVY METAR - ČESKÁ REPUBLIKA
Brno-TuřanyLKTB 010900Z VRB02KT 5000 BR FEW016 10/07 Q1026 NOSIGdekóduj
ČáslavLKCV 010900Z 13003KT 100V170 CAVOK 12/10 Q1025 NOSIG RMK BLU BLUdekóduj
HolešovLKHO 010800Z VRB03KT CAVOK 23/17 Q1019dekóduj
Hradec Královedekóduj
Karlovy VaryLKKV 010921Z VRB02KT 2100 BR SCT002 09/09 Q1024 RMK REG QNH 1020dekóduj
KunoviceLKKU 010900Z 00000KT 5000 BR OVC015 08/06 Q1026 RMK REG QNH 1020dekóduj
LiberecLKLB 020602Z 16003KT 9999 FEW016 BKN043 M01/M02 Q1016dekóduj
Mariánsky Láznědekóduj
Náměšť nad OslavouLKNA 010900Z 19005KT CAVOK 11/09 Q1025 NOSIG RMK BLU BLUdekóduj
Ostrava-MošnovLKMT 010900Z 22014KT 4500 BR OVC009 10/09 Q1024 NOSIGdekóduj
PardubiceLKPD 010900Z VRB02KT CAVOK 11/09 Q1025 NOSIG RMK BLU BLUdekóduj
Praha-KbelyLKKB 010900Z VRB02KT 8000 NSC 10/08 Q1024 NOSIGdekóduj
Praha-RuzyněLKPR 010900Z 21004KT 8000 NSC 10/09 Q1024 NOSIGdekóduj
PřerovLKPO 010000Z 05005KT CAVOK 04/01 Q1013dekóduj
 FreeFly INFO [x]
COROWA 2009


COROWA 2009


COROWA 2009



 LZPT webcam [x]

 Foto týždňa [x]

 KBO SNA [x]

 Login [x]
Užívateľské meno

Heslo


Ešte nemáš konto? Môžeš si ho vytvoriť. Registrovaný užívateľ má množstvo výhod, napr. posielanie okamžitých správ iným užívateľom, posielanie komentárov s vlastným menom, možnosť pridávať fotografie do galérie...

 Kto je online [x]
Momentálne je online 55 hostí a 0 členov.

Ste anonymný užívateľ. Zaregistrovať sa môžete tu

DETAILY

 Linky [x]

 Počítadlo návštev [x]
Zaznamenali sme
34130096
strán zobrazených od júna 2003

Počet dnešných unikátnych IP adries:
0



www.freefly.sk
Powered by SzMsoft ©2003-2005. Polish translations by Cezary Dąbek. Flying server www.freefly.sk is administrated by maro@freefly.sk - www.artweb.freefly.sk
PHP-Nuke Copyright © 2004 by Francisco Burzi. This is free software, and you may redistribute it under the GPL. PHP-Nuke comes with absolutely no warranty, for details, see the license.